Time;durP1;ratioP1;P1;durP2;ratioP2;P2;SDS_P1;SDS_P2;PMS_P1;PMS_P2;Temp;Humidity;BMP_temperature;BMP_pressure;BME280_temperature;BME280_humidity;BME280_pressure;Samples;Min_cycle;Max_cycle;Signal;HPM_P1;HPM_P2
2022/04/16 00:00:27;;;;;;;16.17;10.02;;;9.20;99.90;;;;;;5035012;28;20402;-71
2022/04/16 00:02:54;;;;;;;14.93;10.30;;;9.20;99.90;;;;;;5017988;28;20446;-68
2022/04/16 00:05:23;;;;;;;15.68;10.45;;;9.10;99.90;;;;;;5001687;28;20037;-69
2022/04/16 00:08:06;;;;;;;14.80;10.68;;;9.10;99.90;;;;;;5035254;28;20095;-68
2022/04/16 00:10:33;;;;;;;14.65;10.50;;;8.90;99.90;;;;;;5034833;28;20041;-70
2022/04/16 00:13:00;;;;;;;13.75;10.15;;;8.90;99.90;;;;;;5017835;28;20067;-69
2022/04/16 00:15:26;;;;;;;12.15;10.27;;;8.80;99.90;;;;;;5035142;28;20034;-68
2022/04/16 00:17:53;;;;;;;16.40;10.75;;;8.70;99.90;;;;;;5001186;28;20343;-68
2022/04/16 00:20:19;;;;;;;14.85;10.27;;;8.80;99.90;;;;;;5017282;28;20037;-69
2022/04/16 00:22:45;;;;;;;16.98;11.43;;;8.70;99.90;;;;;;5017533;28;20037;-69
2022/04/16 00:25:13;;;;;;;14.05;10.32;;;8.70;99.90;;;;;;5034935;28;20106;-69
2022/04/16 00:27:39;;;;;;;14.88;10.52;;;8.60;99.90;;;;;;5035077;28;20049;-69
2022/04/16 00:30:06;;;;;;;14.77;11.02;;;8.70;99.90;;;;;;5034375;28;20128;-69
2022/04/16 00:32:32;;;;;;;14.27;11.57;;;8.70;99.90;;;;;;5016727;28;20088;-69
2022/04/16 00:34:57;;;;;;;17.98;11.90;;;8.60;99.90;;;;;;5017240;28;20061;-69
2022/04/16 00:37:23;;;;;;;16.00;11.77;;;8.60;99.90;;;;;;5019266;28;20038;-69
2022/04/16 00:39:48;;;;;;;16.27;12.32;;;8.50;99.90;;;;;;5014430;28;20042;-72
2022/04/16 00:42:14;;;;;;;19.92;14.23;;;8.40;99.90;;;;;;4997715;28;20033;-68
2022/04/16 00:44:40;;;;;;;17.70;13.98;;;8.30;99.90;;;;;;4997418;28;20132;-69
2022/04/16 00:47:06;;;;;;;18.48;13.45;;;8.30;99.90;;;;;;5009360;28;20037;-68
2022/04/16 00:49:31;;;;;;;15.52;12.40;;;8.30;99.90;;;;;;5034461;28;20057;-69
2022/04/16 00:51:57;;;;;;;16.23;12.45;;;8.30;99.90;;;;;;5034441;28;20038;-71
2022/04/16 00:54:23;;;;;;;18.65;12.75;;;8.30;99.90;;;;;;5016917;28;20053;-68
2022/04/16 00:56:48;;;;;;;17.90;12.80;;;8.30;99.90;;;;;;5034226;28;20037;-68
2022/04/16 00:59:14;;;;;;;16.55;13.35;;;8.40;99.90;;;;;;5034230;28;20370;-68
2022/04/16 01:01:40;;;;;;;19.33;14.45;;;8.40;99.90;;;;;;5034038;28;20120;-68
2022/04/16 01:04:05;;;;;;;20.35;14.32;;;8.20;99.90;;;;;;5034513;28;20037;-68
2022/04/16 01:06:38;;;;;;;18.05;14.65;;;8.20;99.90;;;;;;5016405;28;20041;-68
2022/04/16 01:09:04;;;;;;;17.42;13.40;;;8.20;99.90;;;;;;5016961;28;20144;-68
2022/04/16 01:11:32;;;;;;;18.02;13.13;;;8.20;99.90;;;;;;5016144;28;20041;-68
2022/04/16 01:13:59;;;;;;;19.23;13.80;;;8.10;99.90;;;;;;5016592;28;20466;-70
2022/04/16 01:16:28;;;;;;;18.67;14.05;;;8.10;99.90;;;;;;5009071;28;20038;-67
2022/04/16 01:18:55;;;;;;;20.25;13.13;;;8.10;99.90;;;;;;4996925;28;20099;-68
2022/04/16 01:21:20;;;;;;;18.70;13.45;;;8.10;99.90;;;;;;4996461;28;20429;-68
2022/04/16 01:23:46;;;;;;;18.48;13.00;;;8.00;99.90;;;;;;4997259;28;20054;-68
2022/04/16 01:26:12;;;;;;;20.02;13.75;;;8.00;99.90;;;;;;5001644;28;20033;-68
2022/04/16 01:28:40;;;;;;;20.30;14.48;;;8.00;99.90;;;;;;5016628;28;20047;-67
2022/04/16 01:31:06;;;;;;;17.60;14.55;;;8.00;99.90;;;;;;5016072;28;20076;-68
2022/04/16 01:33:32;;;;;;;18.38;14.35;;;7.90;99.90;;;;;;5016493;28;20085;-68
2022/04/16 01:35:58;;;;;;;17.75;14.15;;;7.80;99.90;;;;;;5012887;28;20493;-68
2022/04/16 01:38:27;;;;;;;18.13;13.60;;;7.70;99.90;;;;;;4996867;28;20351;-68
2022/04/16 01:40:56;;;;;;;16.20;13.20;;;7.70;99.90;;;;;;4996354;28;20038;-68
2022/04/16 01:43:22;;;;;;;18.20;13.50;;;7.60;99.90;;;;;;4999735;28;20505;-68
2022/04/16 01:45:49;;;;;;;19.90;14.00;;;7.60;99.90;;;;;;5002422;28;20081;-68
2022/04/16 01:48:16;;;;;;;19.70;12.82;;;7.60;99.90;;;;;;5037628;28;20041;-68
2022/04/16 01:50:42;;;;;;;17.65;13.10;;;7.60;99.90;;;;;;5003728;28;20363;-68
2022/04/16 01:53:07;;;;;;;17.10;13.27;;;7.60;99.90;;;;;;5020202;28;20038;-68
2022/04/16 01:55:33;;;;;;;18.35;13.38;;;7.60;99.90;;;;;;5037144;28;20041;-68
2022/04/16 01:57:59;;;;;;;17.80;12.95;;;7.60;99.90;;;;;;5019991;28;20037;-69
2022/04/16 02:00:24;;;;;;;17.17;13.02;;;7.60;99.90;;;;;;5020096;28;20044;-68
2022/04/16 02:02:50;;;;;;;20.50;13.35;;;7.60;99.90;;;;;;5019938;28;20351;-68
2022/04/16 02:05:16;;;;;;;19.88;13.68;;;7.50;99.90;;;;;;5020049;28;20041;-68
2022/04/16 02:07:42;;;;;;;21.92;13.52;;;7.60;99.90;;;;;;5019660;28;20477;-69
2022/04/16 02:10:08;;;;;;;19.52;13.80;;;7.70;99.90;;;;;;5019666;28;20063;-68
2022/04/16 02:12:37;;;;;;;20.35;14.48;;;7.70;99.90;;;;;;5020121;28;20049;-69
2022/04/16 02:15:07;;;;;;;19.95;14.98;;;7.70;99.90;;;;;;5019731;28;20034;-68
2022/04/16 02:17:33;;;;;;;20.35;14.38;;;7.80;99.90;;;;;;5019397;28;20048;-68
2022/04/16 02:19:59;;;;;;;21.55;14.95;;;7.60;99.90;;;;;;5019435;28;20072;-69
2022/04/16 02:22:25;;;;;;;19.48;15.07;;;7.70;99.90;;;;;;5019739;28;20065;-68
2022/04/16 02:24:51;;;;;;;22.35;16.08;;;7.70;99.90;;;;;;5037387;28;20046;-68
2022/04/16 02:27:17;;;;;;;20.10;15.88;;;7.70;99.90;;;;;;5037061;28;20060;-67
2022/04/16 02:29:43;;;;;;;22.88;16.58;;;7.70;99.90;;;;;;5003117;28;20037;-68
2022/04/16 02:32:09;;;;;;;25.85;18.15;;;7.60;99.90;;;;;;5003306;28;20339;-68
2022/04/16 02:34:35;;;;;;;27.67;18.83;;;7.60;99.90;;;;;;5019313;28;20111;-68
2022/04/16 02:37:00;;;;;;;25.13;17.23;;;7.50;99.90;;;;;;5008011;28;20068;-68
2022/04/16 02:39:26;;;;;;;24.88;17.33;;;7.40;99.90;;;;;;4999287;28;20034;-68
2022/04/16 02:41:52;;;;;;;24.92;17.85;;;7.30;99.90;;;;;;5000119;28;20038;-68
2022/04/16 02:47:05;;;;;;;24.38;16.60;;;7.30;99.90;;;;;;5028172;28;20054;-68
2022/04/16 02:49:31;;;;;;;22.60;15.98;;;7.30;99.90;;;;;;5019044;28;20085;-69
2022/04/16 02:51:57;;;;;;;23.35;16.13;;;7.40;99.90;;;;;;5019122;28;20111;-68
2022/04/16 02:54:25;;;;;;;24.63;16.13;;;7.30;99.90;;;;;;5018478;28;20049;-68
2022/04/16 02:56:51;;;;;;;21.85;15.55;;;7.20;99.90;;;;;;5019091;28;20037;-68
2022/04/16 02:59:16;;;;;;;19.30;15.18;;;7.20;99.90;;;;;;5036543;28;20037;-68
2022/04/16 03:01:42;;;;;;;21.20;15.88;;;7.20;99.90;;;;;;5002520;28;20049;-67
2022/04/16 03:04:07;;;;;;;22.83;15.93;;;7.20;99.90;;;;;;5019238;28;20060;-68
2022/04/16 03:06:33;;;;;;;25.65;16.90;;;7.10;99.90;;;;;;5035967;28;20447;-69
2022/04/16 03:08:59;;;;;;;21.40;15.45;;;7.10;99.90;;;;;;5018934;28;20037;-68
2022/04/16 03:11:24;;;;;;;22.50;16.38;;;7.10;99.90;;;;;;5018664;28;20045;-68
2022/04/16 03:13:50;;;;;;;24.48;17.35;;;7.20;99.90;;;;;;5018878;28;20068;-68
2022/04/16 03:18:59;;;;;;;24.25;17.08;;;7.10;99.90;;;;;;5016588;28;20041;-69
2022/04/16 03:21:25;;;;;;;20.15;16.63;;;7.20;99.90;;;;;;4998578;28;20429;-68
2022/04/16 03:23:51;;;;;;;21.08;17.40;;;7.20;99.90;;;;;;4999224;28;20052;-68
2022/04/16 03:26:16;;;;;;;24.67;18.50;;;7.20;99.90;;;;;;5003741;28;20508;-67
2022/04/16 03:28:42;;;;;;;24.58;17.73;;;7.20;99.90;;;;;;5018348;28;20037;-68
2022/04/16 03:31:07;;;;;;;26.45;18.48;;;7.20;99.90;;;;;;5018397;28;20055;-68
2022/04/16 03:33:33;;;;;;;26.52;18.67;;;7.10;99.90;;;;;;5018431;28;20465;-68
2022/04/16 03:35:59;;;;;;;27.45;19.00;;;7.00;99.90;;;;;;5015803;28;20034;-68
2022/04/16 03:38:24;;;;;;;26.60;18.60;;;7.10;99.90;;;;;;4998781;28;20143;-69
2022/04/16 03:40:50;;;;;;;24.67;18.58;;;7.00;99.90;;;;;;4998135;28;20048;-68
2022/04/16 03:43:19;;;;;;;26.23;19.05;;;6.90;99.90;;;;;;4998570;28;20049;-66
2022/04/16 03:45:45;;;;;;;26.35;19.10;;;7.00;99.90;;;;;;4998693;28;20124;-67
2022/04/16 03:48:11;;;;;;;27.48;18.83;;;7.00;99.90;;;;;;5018355;28;20132;-68
2022/04/16 03:50:36;;;;;;;23.42;19.02;;;6.90;99.90;;;;;;5017856;28;20504;-68
2022/04/16 03:53:03;;;;;;;25.67;19.20;;;6.90;99.90;;;;;;5017976;28;20045;-67
2022/04/16 04:01:01;;;;;;;26.45;19.80;;;6.80;99.90;;;;;;5037120;28;20055;-68
2022/04/16 04:03:28;;;;;;;25.70;19.55;;;6.80;99.90;;;;;;5031923;28;20043;-68
2022/04/16 04:05:58;;;;;;;26.48;19.55;;;6.80;99.90;;;;;;5034252;28;20036;-68
2022/04/16 04:08:25;;;;;;;29.75;20.35;;;6.90;99.90;;;;;;5055022;28;20112;-68
2022/04/16 04:10:52;;;;;;;28.88;21.83;;;6.80;99.90;;;;;;5036815;28;20128;-68
2022/04/16 04:13:19;;;;;;;28.08;20.98;;;6.80;99.90;;;;;;5055198;28;20373;-68
2022/04/16 04:15:45;;;;;;;28.58;20.75;;;6.70;99.90;;;;;;5019901;28;20052;-68
2022/04/16 04:18:11;;;;;;;33.78;21.83;;;6.70;99.90;;;;;;5035129;28;20033;-68
2022/04/16 04:20:36;;;;;;;28.77;21.05;;;6.70;99.90;;;;;;5017359;28;20041;-68
2022/04/16 04:23:03;;;;;;;31.20;20.95;;;6.80;99.90;;;;;;5017541;28;20041;-68
2022/04/16 04:25:29;;;;;;;28.60;20.30;;;6.80;99.90;;;;;;5017212;28;20037;-69
2022/04/16 04:27:55;;;;;;;31.05;21.60;;;6.90;99.90;;;;;;5017238;28;20484;-68
2022/04/16 04:30:21;;;;;;;26.38;19.60;;;6.90;99.90;;;;;;5017097;28;20037;-68
2022/04/16 04:32:47;;;;;;;28.77;21.33;;;6.90;99.90;;;;;;5017207;28;20041;-68
2022/04/16 04:35:12;;;;;;;33.28;22.45;;;7.10;99.90;;;;;;5017204;28;20050;-68
2022/04/16 04:37:38;;;;;;;28.45;20.10;;;7.10;99.90;;;;;;5001673;28;20104;-68
2022/04/16 04:40:04;;;;;;;27.10;20.55;;;7.10;99.90;;;;;;4997249;28;20034;-68
2022/04/16 04:42:33;;;;;;;29.23;22.15;;;7.20;99.90;;;;;;4997423;28;20084;-68
2022/04/16 04:45:05;;;;;;;34.25;23.52;;;7.00;99.90;;;;;;4997347;28;20117;-68
2022/04/16 04:47:31;;;;;;;30.65;21.77;;;7.00;99.90;;;;;;4995042;28;20301;-68
2022/04/16 04:49:56;;;;;;;31.67;22.77;;;7.20;99.90;;;;;;5016760;28;20524;-68
2022/04/16 04:52:26;;;;;;;30.95;22.73;;;7.20;99.90;;;;;;5017213;28;20047;-68
2022/04/16 04:54:54;;;;;;;32.90;22.83;;;7.20;99.90;;;;;;5016860;28;20041;-68
2022/04/16 04:57:20;;;;;;;32.58;24.00;;;7.20;99.90;;;;;;4987768;28;20065;-69
2022/04/16 04:59:46;;;;;;;33.60;23.60;;;7.20;99.90;;;;;;4997006;28;20073;-68
2022/04/16 05:02:11;;;;;;;33.55;23.52;;;7.30;99.90;;;;;;4997363;28;20034;-68
2022/04/16 05:04:37;;;;;;;31.10;22.75;;;7.30;99.90;;;;;;4997424;28;20054;-68
2022/04/16 05:07:05;;;;;;;35.17;23.95;;;7.40;99.90;;;;;;5007129;28;20440;-68
2022/04/16 05:09:31;;;;;;;31.33;24.17;;;7.30;99.90;;;;;;5016376;28;20416;-68
2022/04/16 05:11:57;;;;;;;31.98;23.10;;;7.40;99.90;;;;;;5016880;28;20144;-68
2022/04/16 05:14:23;;;;;;;32.25;21.85;;;7.50;99.90;;;;;;5000380;28;20049;-68
2022/04/16 05:16:49;;;;;;;34.08;24.08;;;7.50;99.90;;;;;;4999636;28;20044;-68
2022/04/16 05:19:15;;;;;;;31.75;23.67;;;7.60;99.90;;;;;;5000004;28;20485;-69
2022/04/16 05:21:41;;;;;;;32.53;23.00;;;7.50;99.90;;;;;;5016824;28;20037;-69
2022/04/16 05:24:08;;;;;;;30.77;22.60;;;7.70;99.90;;;;;;5016688;28;20370;-68
2022/04/16 05:26:34;;;;;;;31.85;23.90;;;7.70;99.90;;;;;;4999830;28;20167;-69
2022/04/16 05:29:00;;;;;;;29.02;21.85;;;7.70;99.90;;;;;;5016356;28;20042;-69
2022/04/16 05:31:29;;;;;;;30.58;23.25;;;7.70;99.90;;;;;;5016299;28;20048;-69
2022/04/16 05:36:39;;;;;;;30.13;23.23;;;7.80;99.90;;;;;;5016300;28;20451;-68
2022/04/16 05:39:05;;;;;;;30.83;22.67;;;7.80;99.90;;;;;;5016130;28;20041;-68
2022/04/16 05:41:33;;;;;;;29.10;21.85;;;7.90;99.90;;;;;;5017128;28;20048;-69
2022/04/16 05:44:03;;;;;;;29.55;22.73;;;7.90;99.90;;;;;;5015942;28;20133;-68
2022/04/16 05:46:29;;;;;;;28.95;21.80;;;8.00;99.90;;;;;;5015621;28;20041;-69
2022/04/16 05:48:56;;;;;;;26.17;20.33;;;8.00;99.90;;;;;;5016986;28;20056;-64
2022/04/16 05:51:23;;;;;;;25.75;20.98;;;8.10;99.90;;;;;;5016272;28;20049;-64
2022/04/16 05:53:49;;;;;;;24.90;18.85;;;8.20;99.90;;;;;;5033448;28;20495;-64
2022/04/16 05:56:15;;;;;;;23.58;18.45;;;8.20;99.90;;;;;;5015746;28;20045;-64
2022/04/16 05:58:42;;;;;;;23.25;18.15;;;8.30;99.90;;;;;;5034062;28;20033;-64
2022/04/16 06:01:08;;;;;;;22.52;17.65;;;8.20;99.90;;;;;;5006633;28;20033;-64
2022/04/16 06:03:36;;;;;;;25.38;18.85;;;8.30;99.90;;;;;;5053188;28;20047;-64
2022/04/16 06:06:03;;;;;;;23.35;17.65;;;8.30;99.90;;;;;;5032850;28;20041;-63
2022/04/16 06:08:29;;;;;;;23.60;16.67;;;8.20;99.90;;;;;;5051666;28;20040;-64
2022/04/16 06:10:54;;;;;;;25.40;17.17;;;8.30;99.90;;;;;;5052858;28;20053;-64
2022/04/16 06:13:20;;;;;;;23.65;18.25;;;8.30;99.90;;;;;;5053284;28;20120;-63
2022/04/16 06:15:46;;;;;;;22.58;16.85;;;8.40;99.90;;;;;;5035564;28;20049;-63
2022/04/16 06:18:12;;;;;;;22.23;16.23;;;8.40;99.90;;;;;;5029212;28;20033;-64
2022/04/16 06:20:38;;;;;;;20.08;15.13;;;8.40;99.90;;;;;;5053102;28;20155;-63
2022/04/16 06:23:05;;;;;;;21.90;16.35;;;8.40;99.90;;;;;;5052825;28;20469;-63
2022/04/16 06:25:31;;;;;;;22.25;16.75;;;8.50;99.90;;;;;;5053341;28;20044;-63
2022/04/16 06:27:57;;;;;;;22.42;16.10;;;8.50;99.90;;;;;;5017511;28;20042;-63
2022/04/16 06:30:23;;;;;;;20.10;16.42;;;8.60;99.90;;;;;;5036193;28;20045;-64
2022/04/16 06:32:49;;;;;;;21.35;15.40;;;8.70;99.90;;;;;;5019527;28;20041;-65
2022/04/16 06:35:14;;;;;;;21.83;15.60;;;8.80;99.90;;;;;;5019386;28;20049;-63
2022/04/16 06:37:41;;;;;;;20.48;14.63;;;8.90;99.90;;;;;;5036599;28;20033;-64
2022/04/16 06:40:08;;;;;;;21.10;14.60;;;9.00;99.90;;;;;;5053085;28;20044;-64
2022/04/16 06:42:35;;;;;;;18.50;14.88;;;9.10;99.90;;;;;;5049649;28;20159;-65
2022/04/16 06:45:00;;;;;;;19.00;14.10;;;9.30;99.90;;;;;;5054474;28;20087;-65
2022/04/16 06:47:29;;;;;;;18.58;14.10;;;9.40;99.90;;;;;;5053912;28;20041;-65
2022/04/16 06:49:55;;;;;;;17.50;12.63;;;9.50;99.90;;;;;;5056505;28;20045;-65
2022/04/16 06:52:21;;;;;;;16.98;12.70;;;9.70;99.90;;;;;;5022401;28;20094;-64
2022/04/16 06:54:47;;;;;;;19.60;13.90;;;10.10;99.90;;;;;;5056523;28;20037;-65
2022/04/16 06:57:13;;;;;;;19.17;13.82;;;10.50;99.90;;;;;;5027406;28;20103;-64
2022/04/16 06:59:38;;;;;;;18.60;12.90;;;11.00;99.90;;;;;;5036388;28;20041;-64
2022/04/16 07:02:05;;;;;;;17.85;11.80;;;11.60;99.90;;;;;;5044144;28;20033;-64
2022/04/16 07:04:32;;;;;;;17.25;11.82;;;11.80;99.90;;;;;;5056363;28;20055;-64
2022/04/16 07:06:58;;;;;;;17.15;12.60;;;11.80;99.90;;;;;;5046830;28;20052;-65
2022/04/16 07:09:23;;;;;;;16.92;11.88;;;11.60;99.90;;;;;;5035888;28;20124;-64
2022/04/16 07:11:49;;;;;;;18.05;12.80;;;11.20;99.90;;;;;;5018668;28;20041;-65
2022/04/16 07:14:15;;;;;;;16.77;12.93;;;11.10;99.90;;;;;;5036397;28;20095;-65
2022/04/16 07:16:41;;;;;;;17.08;11.80;;;11.10;99.90;;;;;;5036309;28;20046;-66
2022/04/16 07:19:06;;;;;;;17.42;12.48;;;11.20;99.90;;;;;;5035786;28;20060;-66
2022/04/16 07:21:32;;;;;;;17.90;12.82;;;11.50;99.90;;;;;;5018697;28;20044;-66
2022/04/16 07:23:57;;;;;;;17.73;12.07;;;11.50;99.90;;;;;;5018528;28;20038;-66
2022/04/16 07:26:24;;;;;;;18.15;12.95;;;11.60;99.90;;;;;;5035607;28;20068;-65
2022/04/16 07:28:49;;;;;;;16.67;12.23;;;11.50;99.90;;;;;;5036270;28;20060;-66
2022/04/16 07:31:15;;;;;;;17.15;12.93;;;11.60;99.90;;;;;;5035541;28;20045;-66
2022/04/16 07:33:40;;;;;;;17.23;11.52;;;11.60;99.90;;;;;;5018498;28;20041;-66
2022/04/16 07:36:06;;;;;;;17.88;12.77;;;11.70;99.90;;;;;;5018171;28;20111;-65
2022/04/16 07:38:31;;;;;;;17.50;12.35;;;11.40;99.90;;;;;;5018715;28;20069;-66
2022/04/16 07:40:57;;;;;;;17.52;12.88;;;11.60;99.90;;;;;;5035472;28;20435;-67
2022/04/16 07:43:23;;;;;;;17.80;12.25;;;11.70;99.90;;;;;;5035485;28;20518;-66
2022/04/16 07:45:48;;;;;;;16.60;12.15;;;11.80;99.90;;;;;;5035842;28;20052;-66
2022/04/16 07:48:14;;;;;;;18.63;12.00;;;11.90;99.90;;;;;;5017810;28;20525;-66
2022/04/16 07:50:40;;;;;;;18.58;12.60;;;11.90;99.90;;;;;;5017924;28;20398;-66
2022/04/16 07:53:06;;;;;;;16.88;11.57;;;11.90;99.90;;;;;;5018057;28;20112;-65
2022/04/16 07:55:33;;;;;;;19.02;12.85;;;12.10;99.90;;;;;;5035671;28;20053;-66
2022/04/16 07:57:59;;;;;;;17.67;11.77;;;11.90;99.90;;;;;;5018169;28;20079;-66
2022/04/16 08:00:25;;;;;;;17.20;12.57;;;11.90;99.90;;;;;;5034942;28;20068;-66
2022/04/16 08:02:51;;;;;;;19.83;12.50;;;11.90;99.90;;;;;;5035517;28;20052;-66
2022/04/16 08:05:17;;;;;;;18.35;12.07;;;11.90;99.90;;;;;;5035464;28;20045;-66
2022/04/16 08:07:44;;;;;;;17.20;11.82;;;12.00;99.90;;;;;;5035016;28;20042;-66
2022/04/16 08:10:10;;;;;;;18.13;12.27;;;12.10;99.90;;;;;;5017826;28;20037;-66
2022/04/16 08:12:37;;;;;;;17.08;11.48;;;12.20;99.90;;;;;;5035089;28;20041;-66
2022/04/16 08:15:03;;;;;;;15.35;10.93;;;12.30;99.90;;;;;;5017534;28;20056;-66
2022/04/16 08:17:29;;;;;;;17.40;11.43;;;12.20;99.90;;;;;;5000941;28;20116;-67
2022/04/16 08:19:55;;;;;;;23.58;18.50;;;12.50;99.90;;;;;;5017489;28;20663;-66
2022/04/16 08:22:23;;;;;;;22.88;17.23;;;12.50;99.90;;;;;;5017434;28;20501;-66
2022/04/16 08:27:35;;;;;;;18.17;12.75;;;12.40;99.90;;;;;;5004164;28;20426;-66
2022/04/16 08:30:01;;;;;;;18.95;13.07;;;12.30;99.90;;;;;;5014831;28;20492;-67
2022/04/16 08:32:26;;;;;;;15.90;11.55;;;12.40;99.90;;;;;;5014931;28;20121;-66
2022/04/16 08:34:52;;;;;;;15.63;11.15;;;12.40;99.90;;;;;;5015029;28;20176;-66
2022/04/16 08:37:18;;;;;;;16.13;10.13;;;12.40;99.90;;;;;;5008099;28;20091;-66
2022/04/16 08:39:44;;;;;;;14.70;10.18;;;12.60;99.90;;;;;;5034506;28;20037;-66
2022/04/16 08:42:10;;;;;;;12.75;9.38;;;12.70;99.90;;;;;;5034895;28;20077;-63
2022/04/16 08:44:38;;;;;;;15.00;10.18;;;12.80;99.90;;;;;;5016834;28;20128;-66
2022/04/16 08:47:05;;;;;;;13.82;9.27;;;12.70;99.90;;;;;;5025596;28;20042;-66
2022/04/16 08:49:32;;;;;;;13.93;9.20;;;12.70;99.90;;;;;;4997190;28;20069;-66
2022/04/16 08:51:58;;;;;;;11.63;9.02;;;12.70;99.90;;;;;;5013999;28;20050;-67
2022/04/16 08:54:23;;;;;;;13.57;9.10;;;12.60;99.90;;;;;;5014656;28;20092;-66
2022/04/16 08:56:49;;;;;;;14.43;8.98;;;12.60;99.90;;;;;;5021145;28;20037;-63
2022/04/16 08:59:15;;;;;;;13.60;8.90;;;12.60;99.90;;;;;;5034215;28;20045;-63
2022/04/16 09:01:40;;;;;;;12.93;9.30;;;12.80;99.90;;;;;;5016997;28;20034;-66
2022/04/16 09:04:06;;;;;;;12.00;8.43;;;12.90;99.90;;;;;;5034400;28;20363;-66
2022/04/16 09:06:32;;;;;;;14.65;8.93;;;12.90;99.90;;;;;;5029700;28;20378;-63
2022/04/16 09:09:09;;;;;;;11.45;8.35;;;13.00;99.90;;;;;;4996617;28;20042;-66
2022/04/16 09:11:35;;;;;;;12.32;8.15;;;13.10;99.90;;;;;;5014526;28;20391;-65
2022/04/16 09:14:00;;;;;;;12.07;8.02;;;13.10;99.90;;;;;;4996740;28;20041;-65
2022/04/16 09:16:26;;;;;;;11.73;7.90;;;13.20;99.90;;;;;;5017161;28;20045;-65
2022/04/16 09:18:55;;;;;;;11.07;7.70;;;13.00;99.90;;;;;;5033711;28;20048;-64
2022/04/16 09:21:28;;;;;;;12.32;7.97;;;13.10;99.90;;;;;;5000167;28;20045;-64
2022/04/16 09:23:59;;;;;;;11.55;7.90;;;13.00;99.90;;;;;;5016410;28;20356;-64
2022/04/16 09:26:32;;;;;;;12.00;7.50;;;13.10;99.90;;;;;;5030601;28;20415;-64
2022/04/16 09:29:10;;;;;;;11.47;7.20;;;13.20;99.90;;;;;;5013784;28;20042;-66
2022/04/16 09:31:40;;;;;;;9.80;7.07;;;13.30;99.90;;;;;;5014241;28;20120;-65
2022/04/16 09:34:15;;;;;;;9.80;6.45;;;13.40;99.90;;;;;;5014260;28;20041;-65
2022/04/16 09:36:41;;;;;;;9.60;5.75;;;13.50;99.90;;;;;;4985343;28;20490;-64
2022/04/16 09:39:07;;;;;;;9.70;6.05;;;13.70;99.90;;;;;;5016570;28;20079;-65
2022/04/16 09:41:34;;;;;;;8.25;5.32;;;13.70;99.90;;;;;;5033989;28;20044;-64
2022/04/16 09:44:03;;;;;;;8.13;5.25;;;13.70;99.90;;;;;;5016367;28;20057;-65
2022/04/16 09:46:31;;;;;;;8.55;5.05;;;13.70;99.90;;;;;;5029995;28;20037;-65
2022/04/16 09:49:06;;;;;;;8.43;5.32;;;13.70;99.90;;;;;;5013759;28;20363;-64
2022/04/16 09:51:35;;;;;;;8.85;5.40;;;13.80;99.90;;;;;;5014239;28;20120;-65
2022/04/16 09:54:05;;;;;;;8.13;5.35;;;13.80;99.90;;;;;;5013638;28;20516;-64
2022/04/16 09:56:35;;;;;;;7.35;4.78;;;13.90;99.90;;;;;;5017162;28;20041;-64
2022/04/16 09:59:04;;;;;;;7.30;4.10;;;14.00;99.90;;;;;;5033214;28;20360;-64
2022/04/16 10:01:31;;;;;;;6.18;3.85;;;13.90;99.90;;;;;;5015969;28;20386;-65
2022/04/16 10:03:58;;;;;;;6.65;4.30;;;14.10;99.90;;;;;;5018833;28;20041;-64
2022/04/16 10:06:24;;;;;;;7.25;3.95;;;14.20;99.90;;;;;;5037161;28;20120;-65
2022/04/16 10:08:50;;;;;;;8.10;3.97;;;14.20;99.90;;;;;;5037030;28;20124;-65
2022/04/16 10:11:41;;;;;;;7.95;4.70;;;14.10;99.90;;;;;;5037181;28;20128;-65
2022/04/16 10:14:11;;;;;;;8.32;4.60;;;14.20;99.90;;;;;;5036958;28;20119;-65
2022/04/16 10:16:45;;;;;;;8.32;4.40;;;14.30;99.90;;;;;;5037271;28;20080;-65
2022/04/16 10:19:17;;;;;;;;;;;14.30;99.90;;;;;;5019980;28;20458;-65
2022/04/16 10:21:43;;;;;;;5.57;3.65;;;14.40;99.90;;;;;;5037473;28;19956;-66
2022/04/16 10:24:08;;;;;;;6.82;3.80;;;14.40;99.90;;;;;;5037492;28;20069;-65
2022/04/16 10:26:39;;;;;;;5.88;3.50;;;14.70;99.90;;;;;;5019439;28;20500;-65
2022/04/16 10:29:04;;;;;;;6.60;3.63;;;14.60;99.90;;;;;;5019539;28;20053;-65
2022/04/16 10:31:33;;;;;;;4.00;2.67;;;14.60;99.90;;;;;;5037120;28;20048;-65
2022/04/16 10:34:03;;;;;;;6.63;3.45;;;14.50;99.90;;;;;;5037236;28;20045;-65
2022/04/16 10:36:39;;;;;;;5.47;3.47;;;14.60;99.90;;;;;;5036776;28;20470;-65
2022/04/16 10:39:18;;;;;;;5.13;3.10;;;14.60;99.90;;;;;;5019078;28;20049;-65
2022/04/16 10:41:57;;;;;;;5.20;3.00;;;14.70;99.90;;;;;;5037156;28;20049;-65
2022/04/16 10:44:25;;;;;;;4.65;2.58;;;14.70;99.70;;;;;;5019277;28;20351;-65
2022/04/16 10:46:52;;;;;;;4.75;2.75;;;14.70;99.00;;;;;;5013177;28;20406;-65
2022/04/16 10:49:23;;;;;;;3.63;2.38;;;14.70;98.90;;;;;;5016580;28;20462;-65
2022/04/16 10:51:55;;;;;;;3.63;2.22;;;14.70;98.70;;;;;;4999688;28;20042;-65
2022/04/16 10:54:34;;;;;;;5.57;2.65;;;14.60;97.40;;;;;;4983462;28;20050;-65
2022/04/16 10:57:01;;;;;;;3.50;2.30;;;14.70;97.80;;;;;;5006965;28;20469;-66
2022/04/16 10:59:43;;;;;;;5.18;2.53;;;14.70;97.60;;;;;;5018986;28;20125;-65
2022/04/16 11:02:26;;;;;;;4.32;2.10;;;14.60;98.70;;;;;;5036816;28;20067;-65
2022/04/16 11:05:02;;;;;;;4.63;2.45;;;14.60;96.70;;;;;;5036822;28;20132;-64
2022/04/16 11:07:35;;;;;;;3.78;2.20;;;14.60;96.90;;;;;;5025711;28;20050;-65
2022/04/16 11:10:02;;;;;;;3.40;1.85;;;14.70;96.70;;;;;;4998834;28;20055;-65
2022/04/16 11:12:29;;;;;;;2.75;1.40;;;15.00;95.70;;;;;;4982863;28;20042;-66
2022/04/16 11:14:55;;;;;;;2.35;1.55;;;14.80;94.10;;;;;;4998401;28;20041;-65
2022/04/16 11:17:21;;;;;;;6.43;1.92;;;14.90;94.20;;;;;;5025979;28;20064;-65
2022/04/16 11:20:02;;;;;;;3.70;2.38;;;15.00;94.20;;;;;;5018258;28;20522;-65
2022/04/16 11:22:28;;;;;;;4.15;2.30;;;14.90;94.70;;;;;;5018576;28;20037;-66
2022/04/16 11:24:55;;;;;;;3.78;2.20;;;14.90;94.90;;;;;;5018411;28;20128;-65
2022/04/16 11:35:58;;;;;;;5.03;2.65;;;15.00;94.60;;;;;;5035961;28;20057;-64
2022/04/16 11:38:27;;;;;;;4.25;2.45;;;15.00;94.20;;;;;;5018611;28;20037;-66
2022/04/16 11:40:53;;;;;;;3.10;2.13;;;14.90;93.70;;;;;;5035829;28;20045;-65
2022/04/16 11:43:23;;;;;;;7.35;2.38;;;15.10;93.40;;;;;;5018111;28;20057;-66
2022/04/16 11:45:49;;;;;;;2.75;1.95;;;15.10;92.90;;;;;;5036006;28;20124;-65
2022/04/16 11:48:16;;;;;;;3.00;2.10;;;15.20;91.70;;;;;;5035443;28;20125;-65
2022/04/16 11:50:42;;;;;;;3.47;2.08;;;15.30;91.90;;;;;;5035504;28;20088;-65
2022/04/16 11:53:13;;;;;;;5.47;2.25;;;15.40;90.60;;;;;;5036015;28;20056;-66
2022/04/16 11:55:46;;;;;;;5.65;1.90;;;15.50;88.30;;;;;;5035433;28;20045;-65
2022/04/16 11:58:12;;;;;;;3.13;1.80;;;15.50;88.20;;;;;;5035471;28;20040;-65
2022/04/16 12:00:54;;;;;;;3.00;1.65;;;15.50;86.30;;;;;;5017748;28;20446;-65
2022/04/16 12:03:20;;;;;;;3.50;1.50;;;15.30;83.90;;;;;;5035534;28;20350;-65
2022/04/16 12:05:48;;;;;;;5.25;1.50;;;15.30;85.70;;;;;;5017610;28;20071;-65
2022/04/16 12:08:16;;;;;;;3.63;1.30;;;15.20;80.80;;;;;;5017646;28;20088;-65
2022/04/16 12:10:48;;;;;;;5.40;1.33;;;15.30;75.60;;;;;;5017794;28;20071;-65
2022/04/16 12:13:14;;;;;;;1.75;1.10;;;15.20;70.00;;;;;;5018000;28;20112;-65
2022/04/16 12:15:42;;;;;;;2.05;1.17;;;15.20;70.60;;;;;;5035297;28;20045;-65
2022/04/16 12:18:16;;;;;;;2.30;1.13;;;15.20;68.00;;;;;;5035091;28;20041;-65
2022/04/16 12:20:46;;;;;;;1.83;0.95;;;15.20;69.90;;;;;;5034678;28;20048;-64
2022/04/16 12:23:22;;;;;;;3.45;1.25;;;15.20;69.40;;;;;;5017314;28;20044;-65
2022/04/16 12:25:48;;;;;;;3.05;0.90;;;15.30;69.00;;;;;;5016983;28;20045;-65
2022/04/16 12:28:14;;;;;;;2.53;1.33;;;15.20;65.10;;;;;;5016387;28;20037;-65
2022/04/16 12:30:48;;;;;;;2.85;1.17;;;15.40;66.00;;;;;;5017046;28;20417;-65
2022/04/16 12:33:13;;;;;;;3.25;1.20;;;15.40;64.90;;;;;;5017400;28;20403;-65
2022/04/16 12:35:41;;;;;;;3.58;1.35;;;15.30;65.70;;;;;;5017152;28;20041;-65
2022/04/16 12:38:07;;;;;;;2.72;1.23;;;15.30;64.90;;;;;;5016891;28;20355;-65
2022/04/16 12:40:35;;;;;;;2.83;1.27;;;15.20;67.90;;;;;;5034484;28;20037;-65
2022/04/16 12:43:01;;;;;;;1.80;1.27;;;15.30;69.50;;;;;;5034533;28;20053;-65
2022/04/16 12:45:30;;;;;;;2.63;1.38;;;15.50;69.80;;;;;;5034256;28;20061;-65
2022/04/16 12:47:56;;;;;;;2.95;1.30;;;15.60;70.80;;;;;;5034016;28;20045;-66
2022/04/16 12:50:22;;;;;;;2.53;1.80;;;15.60;71.60;;;;;;5034303;28;20046;-65
2022/04/16 12:52:48;;;;;;;1.85;1.48;;;15.60;73.20;;;;;;5034704;28;20034;-65
2022/04/16 12:55:15;;;;;;;4.65;1.80;;;15.60;73.30;;;;;;5034316;28;20458;-65
2022/04/16 12:57:42;;;;;;;2.78;1.40;;;15.50;70.10;;;;;;5034254;28;20033;-65
2022/04/16 13:00:09;;;;;;;3.67;1.35;;;15.60;70.60;;;;;;5034056;28;20069;-65
2022/04/16 13:02:37;;;;;;;2.85;1.20;;;15.70;68.30;;;;;;5016744;28;20041;-65